Time;durP1;ratioP1;P1;durP2;ratioP2;P2;SDS_P1;SDS_P2;PMS_P1;PMS_P2;Temp;Humidity;BMP_temperature;BMP_pressure;BME280_temperature;BME280_humidity;BME280_pressure;Samples;Min_cycle;Max_cycle;Signal;HPM_P1;HPM_P2
2021/08/02 00:02:30;;;;;;;;;;;;;;;-142.75;58.44;76611.63;5063335;28;19924;-78
2021/08/02 00:04:59;;;;;;;;;;;;;;;-142.75;59.15;76627.38;5058138;28;20007;-78
2021/08/02 00:07:25;;;;;;;;;;;;;;;-142.75;59.32;76627.38;5060766;28;19917;-78
2021/08/02 00:09:51;;;;;;;;;;;;;;;-142.75;59.50;76621.47;5059921;28;20007;-77
2021/08/02 00:12:26;;;;;;;;;;;;;;;-142.75;58.99;76627.38;5061627;28;20062;-78
2021/08/02 00:14:51;;;;;;;;;;;;;;;-142.75;58.67;76635.25;5059475;28;20406;-78
2021/08/02 00:17:16;;;;;;;;;;;;;;;-142.75;58.10;76601.78;5068332;28;19916;-78
2021/08/02 00:19:42;;;;;;;;;;;;;;;-142.75;58.17;76619.50;5065636;28;20433;-78
2021/08/02 00:22:08;;;;;;;;;;;;;;;-142.75;58.10;76593.91;5063117;28;20011;-78
2021/08/02 00:24:33;;;;;;;;;;;;;;;-142.75;58.76;76629.34;5063440;28;19917;-76
2021/08/02 00:26:59;;;;;;;;;;;;;;;-142.75;58.43;76605.72;5066217;28;19916;-78
2021/08/02 00:29:24;;;;;;;;;;;;;;;-142.75;57.54;76586.03;5059407;28;19917;-78
2021/08/02 00:31:52;;;;;;;;;;;;;;;-142.75;57.23;76591.94;5058628;28;19920;-78
2021/08/02 00:34:17;;;;;;;;;;;;;;;-142.75;56.72;76582.09;5056516;28;20386;-78
2021/08/02 00:36:44;;;;;;;;;;;;;;;-142.75;56.40;76591.94;5062720;28;19917;-78
2021/08/02 00:39:28;;;;;;;;;;;;;;;-142.75;56.92;76605.72;5056978;28;19916;-78
2021/08/02 00:42:11;;;;;;;;;;;;;;;-142.75;56.69;76507.31;5062110;28;19917;-78
2021/08/02 00:44:39;;;;;;;;;;;;;;;-142.75;57.12;76503.38;5064821;28;19959;-78
2021/08/02 00:47:09;;;;;;;;;;;;;;;-142.75;57.74;76552.56;5064081;28;19962;-77
2021/08/02 00:49:36;;;;;;;;;;;;;;;-142.75;58.96;76597.84;5059708;28;19974;-76
2021/08/02 00:52:01;;;;;;;;;;;;;;;-142.75;58.85;76566.34;5060375;28;19925;-78
2021/08/02 00:54:27;;;;;;;;;;;;;;;-142.75;59.10;76597.84;5062682;28;19940;-78
2021/08/02 00:56:56;;;;;;;;;;;;;;;-142.75;59.05;76609.66;5060773;28;20440;-78
2021/08/02 00:59:23;;;;;;;;;;;;;;;-142.75;58.81;76613.59;5063558;28;19917;-76
2021/08/02 01:01:48;;;;;;;;;;;;;;;-142.75;58.56;76613.59;5060297;28;19916;-78
2021/08/02 01:04:13;;;;;;;;;;;;;;;-142.75;58.35;76584.06;5059720;28;20309;-79
2021/08/02 01:06:39;;;;;;;;;;;;;;;-142.75;58.41;76588.00;5061233;28;20491;-78
2021/08/02 01:09:05;;;;;;;;;;;;;;;-142.75;58.86;76591.94;5063207;28;20345;-78
2021/08/02 01:11:32;;;;;;;;;;;;;;;-142.75;59.24;76582.09;5063123;28;19956;-79
2021/08/02 01:13:57;;;;;;;;;;;;;;;-142.75;59.91;76591.94;5056734;28;19928;-78
2021/08/02 01:16:23;;;;;;;;;;;;;;;-142.75;60.25;76599.81;5066422;28;19916;-78
2021/08/02 01:18:48;;;;;;;;;;;;;;;-142.75;60.04;76605.72;5061301;28;19917;-79
2021/08/02 01:21:14;;;;;;;;;;;;;;;-142.75;60.07;76627.38;5059431;28;19916;-78
2021/08/02 01:23:39;;;;;;;;;;;;;;;-142.75;59.50;76617.53;5057819;28;20386;-78
2021/08/02 01:26:05;;;;;;;;;;;;;;;-142.75;58.99;76603.75;5058311;28;20301;-78
2021/08/02 01:28:30;;;;;;;;;;;;;;;-142.75;58.79;76611.63;5062576;28;19917;-78
2021/08/02 01:30:55;;;;;;;;;;;;;;;-142.75;59.29;76601.78;5057577;28;19975;-78
2021/08/02 01:33:31;;;;;;;;;;;;;;;-142.75;59.68;76591.94;5058968;28;20333;-77
2021/08/02 01:36:01;;;;;;;;;;;;;;;-142.75;59.44;76595.88;5062511;28;20037;-78
2021/08/02 01:38:27;;;;;;;;;;;;;;;-142.75;59.01;76589.97;5060831;28;19935;-79
2021/08/02 01:40:52;;;;;;;;;;;;;;;-142.75;58.63;76582.09;5058049;28;19917;-77
2021/08/02 01:43:17;;;;;;;;;;;;;;;-142.75;58.13;76572.25;5063945;28;20337;-77
2021/08/02 01:45:50;;;;;;;;;;;;;;;-142.75;57.65;76572.25;5055164;28;19925;-79
2021/08/02 01:48:15;;;;;;;;;;;;;;;-142.75;57.97;76599.81;5062144;28;20164;-78
2021/08/02 01:50:49;;;;;;;;;;;;;;;-142.75;57.90;76568.31;5058899;28;20010;-77
2021/08/02 01:53:33;;;;;;;;;;;;;;;-142.75;58.01;76576.19;5062330;28;19921;-78
2021/08/02 01:56:17;;;;;;;;;;;;;;;-142.75;58.17;76572.25;5062004;28;19928;-78
2021/08/02 01:58:49;;;;;;;;;;;;;;;-142.75;58.51;76584.06;5063637;28;19917;-78
2021/08/02 02:01:14;;;;;;;;;;;;;;;-142.75;58.17;76570.28;5064666;28;20374;-78
2021/08/02 02:03:40;;;;;;;;;;;;;;;-142.75;58.35;76593.91;5059041;28;19923;-78
2021/08/02 02:06:08;;;;;;;;;;;;;;;-142.75;58.72;76639.19;5063411;28;19922;-78
2021/08/02 02:09:03;;;;;;;;;;;;;;;-142.75;59.46;76656.91;5063523;28;19920;-78
2021/08/02 02:11:28;;;;;;;;;;;;;;;-142.75;59.46;76637.22;5050341;28;19917;-77
2021/08/02 02:13:58;;;;;;;;;;;;;;;-142.75;59.23;76617.53;5058412;28;19921;-78
2021/08/02 02:16:24;;;;;;;;;;;;;;;-142.75;59.19;76635.25;5064486;28;20341;-78
2021/08/02 02:18:51;;;;;;;;;;;;;;;-142.75;59.40;76631.31;5061646;28;20278;-78
2021/08/02 02:21:17;;;;;;;;;;;;;;;-142.75;59.37;76645.09;5065114;28;19960;-77
2021/08/02 02:23:44;;;;;;;;;;;;;;;-142.75;59.53;76641.16;5061898;28;19924;-78
2021/08/02 02:26:10;;;;;;;;;;;;;;;-142.75;59.38;76625.41;5060909;28;19917;-78
2021/08/02 02:28:36;;;;;;;;;;;;;;;-142.75;60.00;76680.53;5061410;28;19931;-78
2021/08/02 02:31:01;;;;;;;;;;;;;;;-142.75;60.37;76688.41;5063028;28;20306;-78
2021/08/02 02:33:28;;;;;;;;;;;;;;;-142.75;60.57;76692.34;5063305;28;19920;-78
2021/08/02 02:35:53;;;;;;;;;;;;;;;-142.75;60.32;76676.59;5063884;28;19916;-77
2021/08/02 02:38:19;;;;;;;;;;;;;;;-142.75;59.90;76645.09;5064869;28;20305;-79
2021/08/02 02:40:45;;;;;;;;;;;;;;;-142.75;59.90;76639.19;5060991;28;19967;-78
2021/08/02 02:43:14;;;;;;;;;;;;;;;-142.75;59.60;76654.94;5064984;28;19924;-78
2021/08/02 02:45:40;;;;;;;;;;;;;;;-142.75;59.91;76680.53;5060731;28;19917;-78
2021/08/02 02:48:07;;;;;;;;;;;;;;;-142.75;59.97;76668.72;5060810;28;19932;-79
2021/08/02 02:50:35;;;;;;;;;;;;;;;-142.75;59.75;76694.31;5063542;28;20370;-77
2021/08/02 02:53:02;;;;;;;;;;;;;;;-142.75;59.66;76704.16;5084570;22;20015;-76
2021/08/02 02:55:27;;;;;;;;;;;;;;;-142.75;59.78;76712.03;5091152;28;19931;-75
2021/08/02 02:57:53;;;;;;;;;;;;;;;-142.75;59.91;76715.97;5093719;28;19916;-76
2021/08/02 03:00:18;;;;;;;;;;;;;;;-142.75;60.16;76757.31;5093229;28;19930;-75
2021/08/02 03:02:45;;;;;;;;;;;;;;;-142.75;60.00;76763.22;5093471;28;19916;-75
2021/08/02 03:05:11;;;;;;;;;;;;;;;-142.75;60.28;76747.47;5090827;28;19916;-75
2021/08/02 03:07:38;;;;;;;;;;;;;;;-142.75;60.46;76798.66;5092351;28;19922;-76
2021/08/02 03:10:03;;;;;;;;;;;;;;;-142.75;60.17;76773.06;5092387;28;19955;-75
2021/08/02 03:12:30;;;;;;;;;;;;;;;-142.75;60.81;76808.50;5091913;28;19959;-75
2021/08/02 03:14:56;;;;;;;;;;;;;;;-142.75;61.05;76814.38;5092298;28;19916;-75
2021/08/02 03:17:21;;;;;;;;;;;;;;;-142.75;61.36;76834.06;5093159;28;20019;-75
2021/08/02 03:19:46;;;;;;;;;;;;;;;-142.75;61.28;76841.94;5093135;28;19990;-75
2021/08/02 03:22:18;;;;;;;;;;;;;;;-142.75;61.11;76814.38;5093339;28;19980;-75
2021/08/02 03:24:46;;;;;;;;;;;;;;;-142.75;61.70;76834.06;5093167;28;19916;-75
2021/08/02 03:27:26;;;;;;;;;;;;;;;-142.75;61.67;76859.66;5091646;28;19927;-75
2021/08/02 03:29:53;;;;;;;;;;;;;;;-142.75;61.40;76832.09;5093018;28;19916;-75
2021/08/02 03:32:20;;;;;;;;;;;;;;;-142.75;61.65;76893.13;5091367;28;19964;-76
2021/08/02 03:34:49;;;;;;;;;;;;;;;-142.75;61.93;76908.88;5092961;28;19931;-76
2021/08/02 03:37:15;;;;;;;;;;;;;;;-142.75;61.71;76904.94;5093166;28;19947;-75
2021/08/02 03:39:42;;;;;;;;;;;;;;;-142.75;62.16;76887.22;5093770;28;19916;-75
2021/08/02 03:42:09;;;;;;;;;;;;;;;-142.75;61.88;76871.47;5092209;28;19948;-75
2021/08/02 03:44:34;;;;;;;;;;;;;;;-142.75;62.25;76899.03;5091265;28;19967;-75
2021/08/02 03:47:00;;;;;;;;;;;;;;;-142.75;62.74;76924.63;5092862;28;20388;-75
2021/08/02 03:49:26;;;;;;;;;;;;;;;-142.75;62.32;76887.22;5091628;28;19916;-75
2021/08/02 03:51:55;;;;;;;;;;;;;;;-142.75;62.71;76940.38;5092351;28;19920;-75
2021/08/02 03:54:21;;;;;;;;;;;;;;;-142.75;62.89;76958.09;5092235;28;19965;-75
2021/08/02 03:56:46;;;;;;;;;;;;;;;-142.75;63.16;76944.31;5092503;28;19924;-74
2021/08/02 03:59:12;;;;;;;;;;;;;;;-142.75;63.48;76962.03;5092665;28;19923;-75
2021/08/02 04:01:41;;;;;;;;;;;;;;;-142.75;63.31;76908.88;5092219;28;19916;-75
2021/08/02 04:04:06;;;;;;;;;;;;;;;-142.75;63.58;76981.72;5091799;28;19916;-75
2021/08/02 04:06:32;;;;;;;;;;;;;;;-142.75;63.59;76977.78;5092763;28;19916;-75
2021/08/02 04:08:58;;;;;;;;;;;;;;;-142.75;63.37;76975.81;5091441;28;19916;-75
2021/08/02 04:11:23;;;;;;;;;;;;;;;-142.75;63.47;76975.81;5092678;28;19968;-75
2021/08/02 04:13:48;;;;;;;;;;;;;;;-142.75;63.56;76999.44;5092037;28;19943;-75
2021/08/02 04:16:13;;;;;;;;;;;;;;;-142.75;63.41;76965.97;5092018;28;19988;-75
2021/08/02 04:18:39;;;;;;;;;;;;;;;-142.75;63.02;76938.41;5092467;28;19924;-75
2021/08/02 04:21:04;;;;;;;;;;;;;;;-142.75;63.15;76950.22;5091811;28;19920;-75
2021/08/02 04:23:29;;;;;;;;;;;;;;;-142.75;63.44;77001.41;5091299;28;19984;-75
2021/08/02 04:25:54;;;;;;;;;;;;;;;-142.75;63.76;77009.28;5091001;28;19916;-75
2021/08/02 04:28:19;;;;;;;;;;;;;;;-142.75;63.75;76979.75;5092133;28;19916;-75
2021/08/02 04:30:45;;;;;;;;;;;;;;;-142.75;63.64;76989.59;5090548;28;19915;-75
2021/08/02 04:33:10;;;;;;;;;;;;;;;-142.75;63.54;76954.16;5092112;28;19920;-75
2021/08/02 04:35:35;;;;;;;;;;;;;;;-142.75;63.11;76906.91;5092616;28;19962;-76
2021/08/02 04:38:00;;;;;;;;;;;;;;;-142.75;62.65;76873.44;5092051;28;20016;-76
2021/08/02 04:40:25;;;;;;;;;;;;;;;-142.75;62.80;76893.13;5092051;28;19923;-76
2021/08/02 04:42:51;;;;;;;;;;;;;;;-142.75;62.79;76883.28;5072936;28;19924;-76
2021/08/02 04:45:16;;;;;;;;;;;;;;;-142.75;62.64;76895.09;5071652;28;19916;-75
2021/08/02 04:47:41;;;;;;;;;;;;;;;-142.75;62.61;76901.00;5070259;28;19927;-75
2021/08/02 04:50:07;;;;;;;;;;;;;;;-142.75;62.76;76889.19;5071574;28;19943;-75
2021/08/02 04:52:32;;;;;;;;;;;;;;;-142.75;63.70;76971.88;5069920;28;20385;-75
2021/08/02 04:54:57;;;;;;;;;;;;;;;-142.75;64.26;76977.78;5069977;28;19966;-75
2021/08/02 04:57:22;;;;;;;;;;;;;;;-142.75;64.48;76983.69;5071125;28;19984;-76
2021/08/02 04:59:47;;;;;;;;;;;;;;;-142.75;64.74;76977.78;5070205;28;19967;-75
2021/08/02 05:02:12;;;;;;;;;;;;;;;-142.75;64.89;76983.69;5071461;28;20297;-75
2021/08/02 05:04:38;;;;;;;;;;;;;;;-142.75;64.88;76975.81;5071149;28;19923;-76
2021/08/02 05:07:03;;;;;;;;;;;;;;;-142.75;64.86;76964.00;5071556;28;19924;-75
2021/08/02 05:09:28;;;;;;;;;;;;;;;-142.75;65.00;76975.81;5072185;28;20327;-75
2021/08/02 05:11:53;;;;;;;;;;;;;;;-142.75;65.03;76987.63;5071653;28;19923;-75
2021/08/02 05:14:19;;;;;;;;;;;;;;;-142.75;65.12;76975.81;5071503;28;20340;-75
2021/08/02 05:16:44;;;;;;;;;;;;;;;-142.75;65.08;76956.13;5071325;28;20335;-75
2021/08/02 05:19:10;;;;;;;;;;;;;;;-142.75;64.72;76940.38;5081601;28;20385;-75
2021/08/02 05:21:35;;;;;;;;;;;;;;;-142.75;64.67;76920.69;5090257;28;19916;-75
2021/08/02 05:24:00;;;;;;;;;;;;;;;-142.75;64.67;76895.09;5091654;28;19920;-75
2021/08/02 05:26:26;;;;;;;;;;;;;;;-142.75;64.63;76901.00;5090455;28;20274;-75
2021/08/02 05:28:51;;;;;;;;;;;;;;;-142.75;64.44;76879.34;5091159;28;19928;-75
2021/08/02 05:31:16;;;;;;;;;;;;;;;-142.75;64.04;76836.03;5090943;28;19923;-75
2021/08/02 05:33:41;;;;;;;;;;;;;;;-142.75;63.50;76810.44;5091548;28;19924;-75
2021/08/02 05:36:07;;;;;;;;;;;;;;;-142.75;62.86;76780.94;5091313;28;20382;-76
2021/08/02 05:38:32;;;;;;;;;;;;;;;-142.75;62.26;76745.50;5091475;28;19924;-76
2021/08/02 05:40:58;;;;;;;;;;;;;;;-142.75;61.75;76723.84;5091233;28;19916;-75
2021/08/02 05:43:24;;;;;;;;;;;;;;;-142.75;60.98;76690.38;5090804;28;20426;-76
2021/08/02 05:45:50;;;;;;;;;;;;;;;-142.75;59.45;76597.84;5091279;28;19963;-75
2021/08/02 05:48:15;;;;;;;;;;;;;;;-142.75;58.20;76615.56;5090181;28;19955;-75
2021/08/02 05:50:40;;;;;;;;;;;;;;;-142.75;56.82;76582.09;5089257;28;19981;-76
2021/08/02 05:53:05;;;;;;;;;;;;;;;-142.75;56.06;76560.44;5085447;28;20306;-76
2021/08/02 05:55:30;;;;;;;;;;;;;;;-142.75;55.39;76515.19;5074578;28;20010;-75
2021/08/02 05:57:55;;;;;;;;;;;;;;;-142.75;54.63;76467.94;5089074;28;19978;-75
2021/08/02 06:00:22;;;;;;;;;;;;;;;-142.75;54.95;76444.31;5090251;28;19963;-75
2021/08/02 06:02:48;;;;;;;;;;;;;;;-142.75;53.81;76401.00;5090272;28;19924;-75
2021/08/02 06:05:13;;;;;;;;;;;;;;;-142.75;53.03;76338.03;5090457;28;19962;-75
2021/08/02 06:07:41;;;;;;;;;;;;;;;-142.75;52.71;76343.94;5090181;28;20289;-76
2021/08/02 06:10:07;;;;;;;;;;;;;;;-142.75;51.64;76282.91;5069431;28;20512;-75
2021/08/02 06:12:32;;;;;;;;;;;;;;;-142.75;51.77;76255.34;5068595;28;20015;-75
2021/08/02 06:14:57;;;;;;;;;;;;;;;-142.75;50.48;76208.09;5070209;28;19961;-75
2021/08/02 06:17:23;;;;;;;;;;;;;;;-142.75;49.48;76164.81;5070112;28;19916;-75
2021/08/02 06:19:48;;;;;;;;;;;;;;;-142.75;48.17;76040.81;5069669;28;19951;-75
2021/08/02 06:22:13;;;;;;;;;;;;;;;-142.75;46.51;76015.22;5069968;28;19938;-75
2021/08/02 06:24:38;;;;;;;;;;;;;;;-142.75;45.91;76044.75;5068393;28;19916;-76
2021/08/02 06:27:04;;;;;;;;;;;;;;;-142.75;45.79;76038.84;5068670;28;19990;-75
2021/08/02 06:29:29;;;;;;;;;;;;;;;-142.75;46.49;76015.22;5069740;28;19924;-75
2021/08/02 06:31:54;;;;;;;;;;;;;;;-142.75;45.10;75999.47;5069690;28;19917;-75
2021/08/02 06:34:19;;;;;;;;;;;;;;;-142.75;44.13;75991.59;5080054;28;20293;-76
2021/08/02 06:36:44;;;;;;;;;;;;;;;-142.75;44.74;75958.16;5070036;28;19916;-76
2021/08/02 06:39:09;;;;;;;;;;;;;;;-142.75;45.15;75954.22;5070185;28;19917;-76
2021/08/02 06:41:35;;;;;;;;;;;;;;;-142.75;43.70;75912.88;5072378;28;20438;-76
2021/08/02 06:44:00;;;;;;;;;;;;;;;-142.75;43.47;75877.44;5072278;28;19916;-75
2021/08/02 06:46:25;;;;;;;;;;;;;;;-142.75;42.08;75889.25;5073801;28;20003;-76
2021/08/02 06:48:50;;;;;;;;;;;;;;;-142.75;42.67;75851.88;5072044;28;19928;-75
2021/08/02 06:51:18;;;;;;;;;;;;;;;-142.75;41.83;75802.66;5071981;28;19924;-76
2021/08/02 06:53:43;;;;;;;;;;;;;;;-142.75;39.81;75798.72;5078593;28;19927;-76
2021/08/02 06:56:08;;;;;;;;;;;;;;;-142.75;39.28;75716.06;5090063;28;19920;-75
2021/08/02 06:58:33;;;;;;;;;;;;;;;-142.75;38.64;75680.63;5078832;28;19923;-76
2021/08/02 07:00:59;;;;;;;;;;;;;;;-142.75;38.40;75631.44;5091886;28;19916;-76
2021/08/02 07:03:24;;;;;;;;;;;;;;;-142.75;37.71;75743.63;5092789;28;19916;-76
2021/08/02 07:05:49;;;;;;;;;;;;;;;-142.75;40.37;75875.47;5092183;28;20404;-75
2021/08/02 07:08:14;;;;;;;;;;;;;;;-142.75;40.88;75786.91;5092938;28;20385;-76
2021/08/02 07:10:39;;;;;;;;;;;;;;;-142.75;39.42;75692.44;5090892;28;19977;-76
2021/08/02 07:13:05;;;;;;;;;;;;;;;-142.75;38.78;75645.22;5079550;28;19935;-76
2021/08/02 07:15:30;;;;;;;;;;;;;;;-142.75;38.05;75588.16;5093093;28;19916;-75
2021/08/02 07:17:55;;;;;;;;;;;;;;;-142.75;37.92;75521.22;5088910;28;19969;-76
2021/08/02 07:20:20;;;;;;;;;;;;;;;-142.75;37.09;75436.59;5093027;28;19969;-77
2021/08/02 07:22:45;;;;;;;;;;;;;;;-142.75;35.67;75401.19;5072413;28;19916;-75
2021/08/02 07:25:11;;;;;;;;;;;;;;;-142.75;35.21;75377.56;5071771;28;19927;-76
2021/08/02 07:27:38;;;;;;;;;;;;;;;-142.75;34.99;75430.72;5071165;28;19917;-76
2021/08/02 07:30:04;;;;;;;;;;;;;;;-142.75;35.94;75546.81;5072356;28;19967;-75
2021/08/02 07:32:29;;;;;;;;;;;;;;;-142.75;38.53;75645.22;5082881;28;19963;-75
2021/08/02 07:34:54;;;;;;;;;;;;;;;-142.75;37.76;75625.53;5092626;28;19923;-76
2021/08/02 07:37:20;;;;;;;;;;;;;;;-142.75;36.99;75519.25;5091172;28;19915;-75
2021/08/02 07:39:45;;;;;;;;;;;;;;;-142.75;35.96;75413.00;5092358;28;19924;-75
2021/08/02 07:42:10;;;;;;;;;;;;;;;-142.75;35.84;75442.50;5092539;28;19969;-75
2021/08/02 07:44:35;;;;;;;;;;;;;;;-142.75;36.89;75468.09;5083861;28;19916;-77
2021/08/02 07:47:00;;;;;;;;;;;;;;;-142.75;37.00;75448.41;5076210;28;19920;-75
2021/08/02 07:49:26;;;;;;;;;;;;;;;-142.75;35.86;75515.31;5091976;28;20016;-75
2021/08/02 07:51:51;;;;;;;;;;;;;;;-142.75;36.38;75456.28;5086987;28;19928;-75
2021/08/02 07:54:16;;;;;;;;;;;;;;;-142.75;36.45;75523.19;5071375;28;19935;-76
2021/08/02 07:56:41;;;;;;;;;;;;;;;-142.75;37.72;75655.06;5089873;28;20010;-75
2021/08/02 07:59:06;;;;;;;;;;;;;;;-142.75;38.28;75735.75;5089896;28;20343;-74
2021/08/02 08:01:32;;;;;;;;;;;;;;;-142.75;38.89;75792.81;5090479;28;19963;-75
2021/08/02 08:03:58;;;;;;;;;;;;;;;-142.75;40.38;75869.56;5089883;28;20014;-76
2021/08/02 08:06:23;;;;;;;;;;;;;;;-142.75;41.24;75973.88;5082737;28;20007;-75
2021/08/02 08:08:49;;;;;;;;;;;;;;;-142.75;42.59;76056.56;5077577;28;20017;-76
2021/08/02 08:11:14;;;;;;;;;;;;;;;-142.75;43.90;76129.38;5069674;28;19956;-76
2021/08/02 08:13:39;;;;;;;;;;;;;;;-142.75;44.67;76176.63;5068973;28;20007;-74
2021/08/02 08:16:05;;;;;;;;;;;;;;;-142.75;45.81;76223.84;5088397;28;19922;-74
2021/08/02 08:18:31;;;;;;;;;;;;;;;-142.75;46.54;76298.66;5076602;28;19975;-75
2021/08/02 08:20:58;;;;;;;;;;;;;;;-142.75;47.29;76324.25;5072783;28;19944;-74
2021/08/02 08:23:24;;;;;;;;;;;;;;;-142.75;47.65;76345.91;5082968;28;20445;-74
2021/08/02 08:25:49;;;;;;;;;;;;;;;-142.75;48.12;76367.53;5070868;28;20023;-75
2021/08/02 08:28:14;;;;;;;;;;;;;;;-142.75;48.82;76377.38;5069306;28;19923;-74
2021/08/02 08:30:39;;;;;;;;;;;;;;;-142.75;48.97;76369.50;5074317;28;19916;-74
2021/08/02 08:33:05;;;;;;;;;;;;;;;-142.75;49.31;76375.41;5075491;28;19929;-74
2021/08/02 08:35:30;;;;;;;;;;;;;;;-142.75;48.46;76365.56;5070744;28;19917;-75
2021/08/02 08:37:55;;;;;;;;;;;;;;;-142.75;49.14;76395.09;5070518;28;20327;-74
2021/08/02 08:40:21;;;;;;;;;;;;;;;-142.75;49.60;76393.13;5070994;28;19981;-74
2021/08/02 08:42:47;;;;;;;;;;;;;;;-142.75;48.97;76369.50;5070540;28;19925;-74
2021/08/02 08:45:12;;;;;;;;;;;;;;;-142.75;48.33;76357.69;5089532;28;20309;-74
2021/08/02 08:47:38;;;;;;;;;;;;;;;-142.75;48.69;76357.69;5090886;28;20311;-74
2021/08/02 08:50:04;;;;;;;;;;;;;;;-142.75;48.32;76353.78;5090441;28;19927;-74
2021/08/02 08:52:30;;;;;;;;;;;;;;;-142.75;48.52;76353.78;5090570;28;19920;-74
2021/08/02 08:54:56;;;;;;;;;;;;;;;-142.75;48.31;76351.81;5103771;22;19935;-77
2021/08/02 08:57:21;;;;;;;;;;;;;;;-142.75;48.02;76341.97;5073023;28;19920;-77
2021/08/02 08:59:50;;;;;;;;;;;;;;;-142.75;47.41;76322.28;5078102;28;20378;-75
2021/08/02 09:02:22;;;;;;;;;;;;;;;-142.75;48.03;76296.69;5076227;28;19917;-77
2021/08/02 09:04:51;;;;;;;;;;;;;;;-142.75;47.64;76278.97;5065984;28;19921;-79
2021/08/02 09:07:16;;;;;;;;;;;;;;;-142.75;46.61;76255.34;5064355;28;19916;-77
2021/08/02 09:09:42;;;;;;;;;;;;;;;-142.75;47.30;76243.53;5053684;28;20302;-78
2021/08/02 09:12:08;;;;;;;;;;;;;;;-142.75;46.37;76212.03;5061750;28;19943;-77
2021/08/02 09:14:34;;;;;;;;;;;;;;;-142.75;45.60;76212.03;5066010;28;20346;-77
2021/08/02 09:17:00;;;;;;;;;;;;;;;-142.75;45.17;76196.31;5061421;28;20015;-77
2021/08/02 09:19:36;;;;;;;;;;;;;;;-142.75;45.88;76188.44;5051917;28;19917;-77
2021/08/02 09:22:02;;;;;;;;;;;;;;;-142.75;44.23;76172.69;5064241;28;19916;-77
2021/08/02 09:24:30;;;;;;;;;;;;;;;-142.75;45.30;76145.13;5067891;28;20385;-79
2021/08/02 09:26:55;;;;;;;;;;;;;;;-142.75;45.18;76040.81;5069220;28;19916;-76
2021/08/02 09:29:31;;;;;;;;;;;;;;;-142.75;42.81;75938.47;5069239;28;20120;-77
2021/08/02 09:31:56;;;;;;;;;;;;;;;-142.75;42.15;75885.31;5070140;28;19916;-76
2021/08/02 09:34:22;;;;;;;;;;;;;;;-142.75;42.00;75842.03;5070004;28;19966;-78
2021/08/02 09:36:53;;;;;;;;;;;;;;;-142.75;40.68;75826.28;5068320;28;19917;-77
2021/08/02 09:39:18;;;;;;;;;;;;;;;-142.75;39.77;75798.72;5068568;28;19920;-77
2021/08/02 09:41:44;;;;;;;;;;;;;;;-142.75;40.59;75749.53;5068858;28;19931;-78
2021/08/02 09:44:23;;;;;;;;;;;;;;;-142.75;39.28;75739.69;5051624;28;20469;-78
2021/08/02 09:46:59;;;;;;;;;;;;;;;-142.75;40.03;75779.03;5067971;28;19916;-78
2021/08/02 09:49:25;;;;;;;;;;;;;;;-142.75;39.51;75763.28;5055510;28;19924;-77
2021/08/02 09:51:50;;;;;;;;;;;;;;;-142.75;38.78;75751.50;5061698;28;19920;-77
2021/08/02 09:54:27;;;;;;;;;;;;;;;-142.75;39.21;75739.69;5069214;28;19924;-78
2021/08/02 09:56:53;;;;;;;;;;;;;;;-142.75;38.68;75751.50;5048563;28;19924;-77
2021/08/02 09:59:19;;;;;;;;;;;;;;;-142.75;38.58;75747.56;5049475;28;19973;-76
2021/08/02 10:01:46;;;;;;;;;;;;;;;-142.75;39.00;75771.16;5047903;28;19916;-77
2021/08/02 10:04:11;;;;;;;;;;;;;;;-142.75;39.50;75788.88;5048391;28;19924;-77
2021/08/02 10:06:37;;;;;;;;;;;;;;;-142.75;40.08;75824.31;5056591;28;20315;-77
2021/08/02 10:09:02;;;;;;;;;;;;;;;-142.75;39.52;75859.72;5057368;28;20382;-78
2021/08/02 10:11:28;;;;;;;;;;;;;;;-142.75;41.00;75934.53;5059979;28;19947;-76
2021/08/02 10:13:54;;;;;;;;;;;;;;;-142.75;41.14;75969.94;5068259;28;19960;-77
2021/08/02 10:16:26;;;;;;;;;;;;;;;-142.75;42.58;76011.28;5068935;28;20404;-76
2021/08/02 10:18:52;;;;;;;;;;;;;;;-142.75;42.35;76030.97;5067489;28;19916;-77
2021/08/02 10:21:18;;;;;;;;;;;;;;;-142.75;41.52;76072.31;5063286;28;19917;-77
2021/08/02 10:23:44;;;;;;;;;;;;;;;-142.75;43.34;76099.84;5068795;28;19993;-77
2021/08/02 10:26:20;;;;;;;;;;;;;;;-142.75;43.99;76091.97;5056885;28;20373;-77
2021/08/02 10:28:56;;;;;;;;;;;;;;;-142.75;42.46;76105.75;5071981;28;20356;-76
2021/08/02 10:31:21;;;;;;;;;;;;;;;-142.75;43.12;76121.50;5061699;28;20023;-77
2021/08/02 10:33:47;;;;;;;;;;;;;;;-142.75;44.58;76129.38;5070340;28;20383;-76
2021/08/02 10:36:16;;;;;;;;;;;;;;;-142.75;43.83;76133.31;5059175;28;19916;-76
2021/08/02 10:38:42;;;;;;;;;;;;;;;-142.75;43.79;76127.41;5063253;28;19931;-75
2021/08/02 10:41:07;;;;;;;;;;;;;;;-142.75;44.23;76174.66;5067876;28;19917;-77
2021/08/02 10:43:34;;;;;;;;;;;;;;;-142.75;45.29;76219.91;5064473;28;20020;-77
2021/08/02 10:46:00;;;;;;;;;;;;;;;-142.75;45.15;76223.84;5070188;28;19920;-76
2021/08/02 10:48:29;;;;;;;;;;;;;;;-142.75;44.92;76219.91;5066090;28;20275;-77
2021/08/02 10:50:55;;;;;;;;;;;;;;;-142.75;45.10;76212.03;5061003;28;20394;-77
2021/08/02 10:53:21;;;;;;;;;;;;;;;-142.75;45.82;76204.16;5069496;28;19928;-79
2021/08/02 10:55:49;;;;;;;;;;;;;;;-142.75;45.56;76164.81;5066719;28;19917;-77
2021/08/02 10:58:23;;;;;;;;;;;;;;;-142.75;45.51;76206.13;5065751;28;20505;-76
2021/08/02 11:00:54;;;;;;;;;;;;;;;-142.75;45.86;76182.53;5054710;28;19975;-76
2021/08/02 11:03:27;;;;;;;;;;;;;;;-142.75;44.26;76139.22;5068769;28;19921;-77
2021/08/02 11:05:52;;;;;;;;;;;;;;;-142.75;45.22;76101.81;5067141;28;20007;-78
2021/08/02 11:08:17;;;;;;;;;;;;;;;-142.75;44.00;76076.22;5059740;28;19963;-77
2021/08/02 11:10:42;;;;;;;;;;;;;;;-142.75;42.85;76017.19;5064244;28;19922;-77
2021/08/02 11:13:08;;;;;;;;;;;;;;;-142.75;40.94;75964.03;5070800;28;20390;-77
2021/08/02 11:15:42;;;;;;;;;;;;;;;-142.75;41.37;75946.34;5068441;28;19917;-77
2021/08/02 11:18:07;;;;;;;;;;;;;;;-142.75;41.40;75930.59;5064251;28;20015;-78
2021/08/02 11:20:33;;;;;;;;;;;;;;;-142.75;39.92;75928.63;5072752;28;19963;-77
2021/08/02 11:22:59;;;;;;;;;;;;;;;-142.75;39.61;75928.63;5070448;28;20550;-77
2021/08/02 11:25:32;;;;;;;;;;;;;;;-142.75;39.71;75936.50;5057416;28;19960;-77
2021/08/02 11:27:59;;;;;;;;;;;;;;;-142.75;40.68;75918.78;5060489;28;19917;-77
2021/08/02 11:30:25;;;;;;;;;;;;;;;-142.75;41.49;75893.19;5065001;28;20003;-78
2021/08/02 11:32:50;;;;;;;;;;;;;;;-142.75;40.61;75899.09;5056590;28;20011;-77
2021/08/02 11:35:15;;;;;;;;;;;;;;;-142.75;39.83;75877.44;5069889;28;19916;-76
2021/08/02 11:37:48;;;;;;;;;;;;;;;-142.75;40.44;75893.19;5069335;28;19916;-77
2021/08/02 11:40:13;;;;;;;;;;;;;;;-142.75;39.30;75916.81;5057450;28;20337;-78
2021/08/02 11:42:42;;;;;;;;;;;;;;;-142.75;40.54;75912.88;5056953;28;20019;-79
2021/08/02 11:45:07;;;;;;;;;;;;;;;-142.75;40.10;75924.69;5061211;28;20306;-74
2021/08/02 11:47:40;;;;;;;;;;;;;;;-142.75;40.57;75940.44;5061746;28;20016;-77
2021/08/02 11:50:06;;;;;;;;;;;;;;;-142.75;39.64;75940.44;5058432;28;19923;-77
2021/08/02 11:52:31;;;;;;;;;;;;;;;-142.75;39.44;75932.56;5055715;28;20290;-77
2021/08/02 11:55:05;;;;;;;;;;;;;;;-142.75;39.46;75924.69;5061213;28;20003;-77
2021/08/02 11:57:31;;;;;;;;;;;;;;;-142.75;38.79;75899.09;5063270;28;20360;-76
2021/08/02 11:59:57;;;;;;;;;;;;;;;-142.75;38.77;75877.44;5072516;28;19916;-77
2021/08/02 12:02:32;;;;;;;;;;;;;;;-142.75;40.12;75867.59;5066798;28;19924;-76
2021/08/02 12:04:58;;;;;;;;;;;;;;;-142.75;38.25;75887.28;5061060;28;19967;-77
2021/08/02 12:07:24;;;;;;;;;;;;;;;-142.75;40.39;75928.63;5055700;28;19960;-76
2021/08/02 12:09:49;;;;;;;;;;;;;;;-142.75;37.95;75948.31;5066592;28;19920;-74
2021/08/02 12:12:20;;;;;;;;;;;;;;;-142.75;39.56;75989.63;5059638;28;19962;-78
2021/08/02 12:14:45;;;;;;;;;;;;;;;-142.75;40.08;76048.69;5059773;28;19921;-77
2021/08/02 12:17:11;;;;;;;;;;;;;;;-142.75;40.41;76125.44;5070416;28;19916;-77
2021/08/02 12:19:49;;;;;;;;;;;;;;;-142.75;42.47;76172.69;5058024;28;20289;-76
2021/08/02 12:22:18;;;;;;;;;;;;;;;-142.75;41.88;76196.31;5070301;28;19916;-76
2021/08/02 12:24:49;;;;;;;;;;;;;;;-142.75;42.45;76221.88;5060599;28;19917;-76
2021/08/02 12:27:15;;;;;;;;;;;;;;;-142.75;43.11;76237.63;5061922;28;19923;-75